Time;durP1;ratioP1;P1;durP2;ratioP2;P2;SDS_P1;SDS_P2;PMS_P1;PMS_P2;Temp;Humidity;BMP_temperature;BMP_pressure;BME280_temperature;BME280_humidity;BME280_pressure;Samples;Min_cycle;Max_cycle;Signal;HPM_P1;HPM_P2
2024/03/10 00:01:05;;;;;;;20.38;14.57;;;8.00;95.20;;;;;;6273644;22;20008;-68
2024/03/10 00:03:51;;;;;;;21.75;13.95;;;8.00;95.20;;;;;;6276887;22;20339;-68
2024/03/10 00:06:37;;;;;;;23.08;14.02;;;8.00;95.20;;;;;;6274356;22;20095;-68
2024/03/10 00:09:23;;;;;;;19.63;13.70;;;7.90;95.20;;;;;;6274353;22;20012;-68
2024/03/10 00:12:09;;;;;;;22.80;15.57;;;7.90;95.20;;;;;;6272971;22;20368;-68
2024/03/10 00:14:55;;;;;;;21.92;15.27;;;7.90;95.30;;;;;;6274622;22;20003;-68
2024/03/10 00:17:42;;;;;;;21.80;14.60;;;7.80;95.30;;;;;;6273348;22;20118;-68
2024/03/10 00:20:29;;;;;;;22.75;14.15;;;7.90;95.30;;;;;;6273181;22;20079;-68
2024/03/10 00:23:15;;;;;;;21.92;14.00;;;7.80;95.30;;;;;;6272683;22;20027;-68
2024/03/10 00:26:05;;;;;;;21.83;15.07;;;7.80;95.40;;;;;;6273181;22;20380;-68
2024/03/10 00:28:51;;;;;;;20.90;13.85;;;7.70;95.40;;;;;;6275115;22;20054;-67
2024/03/10 00:31:37;;;;;;;21.83;14.40;;;7.70;95.50;;;;;;6272843;22;20090;-67
2024/03/10 00:34:23;;;;;;;23.00;15.45;;;7.70;95.50;;;;;;6273755;22;20008;-67
2024/03/10 00:37:11;;;;;;;20.17;13.70;;;7.70;95.50;;;;;;6273542;22;20391;-68
2024/03/10 00:39:57;;;;;;;22.08;13.68;;;7.70;95.60;;;;;;6272747;22;20008;-67
2024/03/10 00:42:43;;;;;;;19.95;14.65;;;7.60;95.60;;;;;;6272181;22;20008;-67
2024/03/10 00:45:29;;;;;;;23.45;14.55;;;7.60;95.60;;;;;;6273365;22;20013;-67
2024/03/10 00:48:16;;;;;;;25.27;16.20;;;7.60;95.70;;;;;;6273166;22;20070;-67
2024/03/10 00:51:02;;;;;;;24.00;15.00;;;7.60;95.70;;;;;;6273356;22;20008;-66
2024/03/10 00:53:48;;;;;;;22.80;15.65;;;7.50;95.70;;;;;;6273404;22;20095;-67
2024/03/10 00:56:35;;;;;;;21.98;14.80;;;7.60;95.70;;;;;;6274305;22;20089;-66
2024/03/10 00:59:21;;;;;;;25.90;15.43;;;7.60;95.80;;;;;;6273187;22;20011;-67
2024/03/10 01:02:07;;;;;;;20.90;13.30;;;7.60;95.80;;;;;;6272710;22;20387;-67
2024/03/10 01:04:55;;;;;;;21.70;14.80;;;7.60;95.80;;;;;;6291457;22;20011;-67
2024/03/10 01:07:41;;;;;;;23.33;15.07;;;7.50;95.90;;;;;;6272349;22;20023;-66
2024/03/10 01:10:27;;;;;;;21.27;14.80;;;7.50;95.90;;;;;;6274999;22;20383;-67
2024/03/10 01:13:15;;;;;;;22.95;14.20;;;7.50;96.00;;;;;;6274770;22;20019;-68
2024/03/10 01:16:02;;;;;;;22.33;14.02;;;7.50;96.00;;;;;;6271636;22;20079;-67
2024/03/10 01:18:51;;;;;;;25.05;14.90;;;7.50;96.00;;;;;;6272759;22;20057;-69
2024/03/10 01:21:37;;;;;;;25.35;15.98;;;7.40;96.00;;;;;;6272151;22;20003;-68
2024/03/10 01:24:23;;;;;;;22.30;13.70;;;7.40;96.00;;;;;;6273608;22;20020;-83
2024/03/10 01:27:09;;;;;;;21.48;13.82;;;7.40;96.10;;;;;;6273423;22;20475;-80
2024/03/10 01:29:55;;;;;;;22.83;14.10;;;7.40;96.10;;;;;;6273150;22;20165;-79
2024/03/10 01:32:41;;;;;;;21.48;13.75;;;7.40;96.20;;;;;;6273670;22;20466;-79
2024/03/10 01:35:27;;;;;;;21.58;14.15;;;7.40;96.20;;;;;;6271753;22;20039;-79
2024/03/10 01:38:13;;;;;;;24.27;15.30;;;7.30;96.20;;;;;;6274110;22;20043;-79
2024/03/10 01:40:59;;;;;;;23.67;15.07;;;7.30;96.20;;;;;;6272820;22;20013;-79
2024/03/10 01:43:47;;;;;;;20.65;13.63;;;7.30;96.30;;;;;;6274123;22;20030;-80
2024/03/10 01:46:37;;;;;;;21.48;13.88;;;7.30;96.30;;;;;;6271639;22;20538;-79
2024/03/10 01:49:23;;;;;;;23.88;14.35;;;7.20;96.30;;;;;;6275424;22;20094;-80
2024/03/10 01:52:10;;;;;;;20.92;13.93;;;7.20;96.30;;;;;;6272173;22;20086;-78
2024/03/10 01:55:00;;;;;;;22.63;14.80;;;7.20;96.50;;;;;;6277145;22;20099;-77
2024/03/10 01:57:47;;;;;;;26.98;15.55;;;7.20;96.40;;;;;;6250321;22;20018;-78
2024/03/10 02:00:38;;;;;;;23.45;14.85;;;7.10;96.50;;;;;;6272548;22;20011;-79
2024/03/10 02:03:24;;;;;;;23.33;14.70;;;7.10;96.50;;;;;;6272023;22;20384;-77
2024/03/10 02:06:10;;;;;;;22.88;15.00;;;7.10;96.50;;;;;;6273209;22;20039;-77
2024/03/10 02:08:57;;;;;;;25.15;15.13;;;7.00;96.60;;;;;;6273185;22;20028;-76
2024/03/10 02:11:44;;;;;;;23.77;15.90;;;7.00;96.60;;;;;;6271873;22;20023;-77
2024/03/10 02:14:30;;;;;;;24.13;14.98;;;7.00;96.60;;;;;;6271913;22;20019;-79
2024/03/10 02:17:16;;;;;;;22.90;13.95;;;7.00;96.70;;;;;;6271152;22;20018;-80
2024/03/10 02:20:10;;;;;;;27.88;16.50;;;7.10;96.70;;;;;;6270286;22;20007;-80
2024/03/10 02:22:56;;;;;;;25.38;16.17;;;7.00;96.70;;;;;;6271573;22;20014;-80
2024/03/10 02:25:42;;;;;;;27.10;17.88;;;7.00;96.80;;;;;;6271752;22;20111;-80
2024/03/10 02:28:46;;;;;;;27.88;16.80;;;6.90;96.80;;;;;;6248402;22;20053;-79
2024/03/10 02:47:14;;;;;;;28.63;18.05;;;6.80;96.90;;;;;;6272200;22;20325;-79
2024/03/10 02:50:05;;;;;;;26.98;17.33;;;6.80;97.00;;;;;;6272481;22;20097;-79
2024/03/10 02:52:51;;;;;;;27.38;16.77;;;6.70;97.00;;;;;;6272571;22;20406;-80
2024/03/10 02:55:37;;;;;;;27.65;18.10;;;6.70;97.00;;;;;;6275506;22;20043;-79
2024/03/10 02:58:23;;;;;;;27.73;17.05;;;6.70;97.10;;;;;;6273165;22;20008;-80
2024/03/10 03:01:10;;;;;;;27.52;17.83;;;6.70;97.10;;;;;;6271955;22;20012;-80
2024/03/10 03:03:56;;;;;;;30.80;19.17;;;6.70;97.20;;;;;;6273513;22;20007;-79
2024/03/10 03:06:42;;;;;;;32.47;19.02;;;6.60;97.30;;;;;;6271912;22;20008;-80
2024/03/10 03:09:28;;;;;;;28.15;18.17;;;6.60;97.20;;;;;;6272355;22;20428;-80
2024/03/10 03:12:15;;;;;;;28.70;18.60;;;6.60;97.30;;;;;;6270967;22;20087;-80
2024/03/10 03:15:00;;;;;;;32.33;18.48;;;6.50;97.30;;;;;;6272176;22;20004;-79
2024/03/10 03:17:46;;;;;;;30.98;18.30;;;6.50;97.40;;;;;;6271262;22;20352;-78
2024/03/10 03:20:33;;;;;;;29.20;18.63;;;6.50;97.50;;;;;;6271566;22;20011;-78
2024/03/10 03:23:18;;;;;;;32.03;19.02;;;6.50;97.50;;;;;;6271252;22;20011;-79
2024/03/10 03:26:04;;;;;;;33.00;19.25;;;6.50;97.50;;;;;;6273245;22;20016;-79
2024/03/10 03:28:50;;;;;;;27.38;18.73;;;6.50;97.70;;;;;;6252391;22;20023;-80
2024/03/10 03:31:36;;;;;;;30.70;18.42;;;6.40;97.50;;;;;;6274080;22;20035;-81
2024/03/10 03:34:22;;;;;;;32.33;20.15;;;6.40;97.60;;;;;;6250633;22;20022;-80
2024/03/10 03:37:10;;;;;;;32.20;18.85;;;6.50;97.70;;;;;;6275334;22;20038;-80
2024/03/10 03:39:57;;;;;;;36.22;22.92;;;6.40;97.70;;;;;;6273832;22;20034;-80
2024/03/10 03:42:44;;;;;;;34.78;20.45;;;6.40;97.70;;;;;;6275680;22;20095;-80
2024/03/10 03:45:30;;;;;;;33.33;20.83;;;6.30;97.70;;;;;;6252848;22;20015;-79
2024/03/10 03:48:16;;;;;;;36.47;20.23;;;6.40;97.80;;;;;;6274678;22;20098;-79
2024/03/10 03:51:02;;;;;;;32.78;19.98;;;6.40;97.90;;;;;;6273050;22;20004;-80
2024/03/10 03:53:48;;;;;;;31.98;20.48;;;6.30;97.90;;;;;;6276464;22;20012;-84
2024/03/10 03:56:34;;;;;;;34.08;19.83;;;6.30;97.90;;;;;;6278917;22;20018;-81
2024/03/10 03:59:21;;;;;;;33.13;19.65;;;6.30;98.00;;;;;;6276056;22;20436;-80
2024/03/10 04:02:07;;;;;;;32.78;20.10;;;6.30;98.00;;;;;;6273050;22;20332;-79
2024/03/10 04:04:54;;;;;;;35.38;20.15;;;6.30;98.10;;;;;;6275096;22;20363;-79
2024/03/10 04:07:41;;;;;;;34.35;19.83;;;6.30;98.10;;;;;;6272321;22;20020;-80
2024/03/10 04:10:28;;;;;;;35.38;21.42;;;6.30;98.10;;;;;;6252152;22;20091;-80
2024/03/10 04:13:14;;;;;;;33.58;21.23;;;6.30;98.10;;;;;;6282531;22;20022;-79
2024/03/10 04:16:00;;;;;;;35.30;21.67;;;6.20;98.10;;;;;;6301967;22;20022;-77
2024/03/10 04:18:46;;;;;;;33.55;21.65;;;6.20;98.20;;;;;;6300840;22;20026;-77
2024/03/10 04:21:33;;;;;;;42.72;22.92;;;6.20;98.20;;;;;;6299398;22;20004;-76
2024/03/10 04:24:21;;;;;;;33.47;20.88;;;6.20;98.30;;;;;;6283982;22;20372;-77
2024/03/10 04:27:10;;;;;;;36.78;21.75;;;6.20;98.30;;;;;;6273185;22;20008;-78
2024/03/10 04:29:56;;;;;;;38.60;23.13;;;6.20;98.40;;;;;;6273346;22;20043;-79
2024/03/10 04:32:42;;;;;;;38.13;22.80;;;6.20;98.40;;;;;;6252154;22;20000;-78
2024/03/10 04:35:28;;;;;;;40.92;22.67;;;6.10;98.40;;;;;;6272050;22;20008;-79
2024/03/10 04:38:14;;;;;;;37.40;23.35;;;6.10;98.40;;;;;;6272728;22;20007;-78
2024/03/10 04:41:00;;;;;;;40.20;24.23;;;6.10;98.50;;;;;;6272959;22;20019;-78
2024/03/10 04:43:46;;;;;;;35.10;21.35;;;6.10;98.50;;;;;;6273043;22;20428;-76
2024/03/10 04:46:32;;;;;;;35.53;20.33;;;6.10;98.60;;;;;;6272760;22;20337;-82
2024/03/10 04:49:18;;;;;;;36.28;21.40;;;6.10;98.60;;;;;;6274203;22;20015;-76
2024/03/10 04:52:04;;;;;;;42.70;22.52;;;6.00;98.70;;;;;;6276040;22;20008;-80
2024/03/10 04:54:50;;;;;;;38.05;22.92;;;6.00;98.80;;;;;;6272763;22;20019;-78
2024/03/10 04:57:36;;;;;;;39.55;23.25;;;6.00;98.70;;;;;;6275848;22;20008;-78
2024/03/10 05:00:21;;;;;;;34.30;20.95;;;6.00;98.80;;;;;;6272347;22;20342;-78
2024/03/10 05:03:10;;;;;;;33.72;21.52;;;6.00;98.90;;;;;;6250458;22;20007;-79
2024/03/10 05:05:56;;;;;;;41.60;23.42;;;6.00;98.90;;;;;;6272238;22;20106;-79
2024/03/10 05:08:42;;;;;;;38.35;22.00;;;6.00;98.90;;;;;;6273422;22;20023;-80
2024/03/10 05:11:27;;;;;;;38.70;21.70;;;6.00;99.00;;;;;;6272251;22;20039;-81
2024/03/10 05:14:13;;;;;;;33.63;21.35;;;6.00;99.00;;;;;;6272440;22;20313;-81
2024/03/10 05:17:02;;;;;;;37.38;21.27;;;6.00;99.10;;;;;;6248915;22;20019;-74
2024/03/10 05:19:47;;;;;;;38.85;23.15;;;6.00;99.10;;;;;;6276644;22;20011;-86
2024/03/10 05:22:35;;;;;;;35.25;22.05;;;5.90;99.10;;;;;;6280703;22;20797;-83
2024/03/10 05:25:22;;;;;;;35.70;21.33;;;6.00;99.20;;;;;;6274279;22;20077;-81
2024/03/10 05:28:09;;;;;;;37.25;23.17;;;5.90;99.20;;;;;;6271894;22;20019;-81
2024/03/10 05:30:55;;;;;;;44.45;24.80;;;6.00;99.20;;;;;;6273833;22;20008;-79
2024/03/10 05:33:41;;;;;;;39.33;23.13;;;5.90;99.20;;;;;;6272503;22;20441;-77
2024/03/10 05:36:28;;;;;;;34.58;21.98;;;5.90;99.30;;;;;;6273270;22;20436;-77
2024/03/10 05:39:14;;;;;;;37.45;22.92;;;5.90;99.30;;;;;;6272163;22;20015;-77
2024/03/10 05:42:00;;;;;;;35.67;21.30;;;5.90;99.30;;;;;;6273138;22;20007;-78
2024/03/10 05:44:46;;;;;;;45.42;23.95;;;5.90;99.30;;;;;;6273541;22;20004;-78
2024/03/10 05:47:32;;;;;;;36.78;22.20;;;5.80;99.40;;;;;;6271417;22;20015;-76
2024/03/10 05:50:20;;;;;;;34.65;20.42;;;5.80;99.50;;;;;;6272092;22;20018;-75
2024/03/10 05:53:06;;;;;;;35.60;21.20;;;5.80;99.60;;;;;;6249637;22;20428;-76
2024/03/10 05:55:54;;;;;;;38.83;21.48;;;5.80;99.80;;;;;;6271445;22;20054;-74
2024/03/10 05:58:40;;;;;;;36.38;21.52;;;5.90;99.60;;;;;;6253162;22;20039;-69
2024/03/10 06:01:28;;;;;;;35.78;22.88;;;5.90;99.60;;;;;;6273777;22;20026;-71
2024/03/10 06:04:14;;;;;;;36.17;22.58;;;5.80;99.60;;;;;;6272080;22;20007;-70
2024/03/10 06:07:00;;;;;;;37.88;21.13;;;5.80;99.60;;;;;;6273720;22;20371;-69
2024/03/10 06:09:46;;;;;;;33.20;21.55;;;5.90;99.70;;;;;;6271201;22;20022;-71
2024/03/10 06:12:33;;;;;;;38.88;23.38;;;5.90;99.70;;;;;;6269661;22;20011;-71
2024/03/10 06:15:19;;;;;;;33.58;20.95;;;5.90;99.80;;;;;;6272717;22;20011;-70
2024/03/10 06:27:19;;;;;;;35.08;22.67;;;6.00;99.80;;;;;;6272467;22;20011;-72
2024/03/10 06:30:06;;;;;;;37.03;22.25;;;6.00;99.80;;;;;;6274808;22;20015;-72
2024/03/10 06:32:52;;;;;;;31.02;20.45;;;6.00;99.90;;;;;;6271994;22;20077;-71
2024/03/10 06:35:38;;;;;;;36.38;20.67;;;6.00;99.90;;;;;;6273173;22;20016;-71
2024/03/10 06:38:25;;;;;;;35.53;20.95;;;6.00;99.90;;;;;;6271946;22;20039;-72
2024/03/10 06:41:11;;;;;;;35.97;21.77;;;6.10;99.90;;;;;;6271162;22;20440;-74
2024/03/10 06:43:58;;;;;;;34.80;20.60;;;6.10;99.90;;;;;;6272487;22;20019;-74
2024/03/10 06:46:44;;;;;;;34.15;22.58;;;6.10;99.90;;;;;;6270793;22;20050;-73
2024/03/10 06:49:31;;;;;;;34.50;21.77;;;6.20;99.90;;;;;;6274436;22;20102;-73
2024/03/10 06:52:17;;;;;;;34.97;21.83;;;6.20;99.90;;;;;;6272027;22;20008;-73
2024/03/10 06:55:05;;;;;;;35.85;20.40;;;6.20;99.90;;;;;;6271138;22;20091;-73
2024/03/10 06:57:51;;;;;;;33.22;21.50;;;6.30;99.90;;;;;;6272088;22;20008;-73
2024/03/10 07:00:39;;;;;;;37.38;21.88;;;6.30;99.90;;;;;;6272239;22;20007;-74
2024/03/10 07:03:25;;;;;;;35.72;21.75;;;6.30;99.90;;;;;;6272394;22;20085;-74
2024/03/10 07:06:11;;;;;;;32.78;20.13;;;6.40;99.90;;;;;;6273524;22;20497;-74
2024/03/10 07:08:59;;;;;;;37.60;21.58;;;6.40;99.90;;;;;;6274555;22;20016;-74
2024/03/10 07:11:45;;;;;;;36.90;23.00;;;6.40;99.90;;;;;;6274104;22;20518;-74
2024/03/10 07:14:31;;;;;;;37.33;23.42;;;6.50;99.90;;;;;;6276054;22;20012;-74
2024/03/10 07:17:17;;;;;;;35.42;20.83;;;6.60;99.90;;;;;;6274122;22;20037;-74
2024/03/10 07:20:05;;;;;;;31.90;21.30;;;6.60;99.90;;;;;;6280810;22;20022;-72
2024/03/10 07:22:51;;;;;;;33.40;20.35;;;6.60;99.90;;;;;;6301958;22;20027;-73
2024/03/10 07:25:37;;;;;;;39.92;22.55;;;6.70;99.90;;;;;;6296632;22;20049;-73
2024/03/10 07:28:23;;;;;;;31.90;19.98;;;6.80;99.90;;;;;;6289971;22;20020;-73
2024/03/10 07:31:09;;;;;;;35.30;21.88;;;6.90;99.90;;;;;;6282282;22;20143;-73
2024/03/10 07:33:55;;;;;;;34.63;21.10;;;7.00;99.90;;;;;;6275650;22;20094;-73
2024/03/10 07:36:41;;;;;;;38.85;21.92;;;7.00;99.90;;;;;;6275084;22;20000;-75
2024/03/10 07:39:28;;;;;;;35.30;21.45;;;7.10;99.90;;;;;;6254956;22;20007;-73
2024/03/10 07:42:15;;;;;;;34.92;20.23;;;7.20;99.90;;;;;;6251622;22;20008;-76
2024/03/10 07:45:01;;;;;;;29.40;18.30;;;7.20;99.90;;;;;;6272667;22;20007;-75
2024/03/10 07:47:48;;;;;;;33.30;20.80;;;7.30;99.90;;;;;;6270729;22;20015;-76
2024/03/10 07:50:35;;;;;;;31.33;20.08;;;7.40;99.90;;;;;;6273395;22;20026;-75
2024/03/10 07:53:21;;;;;;;31.30;19.77;;;7.40;99.90;;;;;;6272815;22;20046;-73
2024/03/10 07:56:08;;;;;;;31.73;19.95;;;7.50;99.90;;;;;;6273004;22;20062;-74
2024/03/10 07:58:54;;;;;;;33.00;20.73;;;7.60;99.90;;;;;;6272528;22;20015;-75
2024/03/10 08:01:40;;;;;;;31.95;21.38;;;7.70;99.90;;;;;;6273962;22;20008;-73
2024/03/10 08:04:26;;;;;;;29.38;19.95;;;7.80;99.90;;;;;;6272587;22;20012;-75
2024/03/10 08:07:12;;;;;;;30.30;18.42;;;7.90;99.90;;;;;;6272351;22;20007;-73
2024/03/10 08:09:58;;;;;;;34.20;20.77;;;7.90;99.90;;;;;;6275444;22;20042;-73
2024/03/10 08:12:47;;;;;;;31.88;19.88;;;8.00;99.90;;;;;;6274605;22;20008;-78
2024/03/10 08:15:33;;;;;;;32.63;20.42;;;8.10;99.90;;;;;;6274324;22;20023;-74
2024/03/10 08:18:19;;;;;;;33.47;20.20;;;8.20;99.90;;;;;;6271932;22;20558;-72
2024/03/10 08:21:05;;;;;;;28.80;19.92;;;8.30;99.90;;;;;;6248323;22;20340;-74
2024/03/10 08:23:51;;;;;;;34.08;21.35;;;8.40;99.90;;;;;;6273175;22;20016;-73
2024/03/10 08:26:38;;;;;;;30.67;19.42;;;8.50;99.90;;;;;;6274241;22;20007;-73
2024/03/10 08:29:24;;;;;;;31.50;18.88;;;8.60;99.80;;;;;;6271442;22;20016;-68
2024/03/10 08:32:10;;;;;;;29.38;19.83;;;8.60;99.70;;;;;;6272685;22;20007;-69
2024/03/10 08:34:56;;;;;;;30.30;19.67;;;8.70;99.70;;;;;;6271926;22;20500;-69
2024/03/10 08:37:44;;;;;;;33.17;20.85;;;8.80;99.60;;;;;;6273701;22;20014;-69
2024/03/10 08:40:34;;;;;;;30.50;18.67;;;8.90;99.60;;;;;;6272990;22;20007;-72
2024/03/10 08:43:21;;;;;;;32.63;19.63;;;9.00;99.70;;;;;;6272521;22;20436;-69
2024/03/10 08:46:07;;;;;;;28.77;19.40;;;9.10;99.50;;;;;;6272797;22;20012;-70
2024/03/10 08:48:53;;;;;;;27.60;17.52;;;9.20;99.50;;;;;;6272419;22;20543;-72
2024/03/10 08:51:41;;;;;;;32.92;20.67;;;9.30;99.40;;;;;;6275247;22;20333;-72
2024/03/10 08:54:30;;;;;;;28.85;18.25;;;9.40;99.20;;;;;;6268563;22;20016;-67
2024/03/10 08:57:16;;;;;;;31.65;20.17;;;9.50;99.10;;;;;;6272685;22;20043;-65
2024/03/10 09:00:03;;;;;;;32.83;19.08;;;9.60;99.00;;;;;;6250398;22;20049;-64
2024/03/10 09:02:50;;;;;;;27.52;18.90;;;9.70;98.90;;;;;;6273702;22;20038;-64
2024/03/10 09:05:36;;;;;;;30.08;19.45;;;9.80;98.90;;;;;;6269644;22;20058;-64
2024/03/10 09:08:22;;;;;;;28.13;18.50;;;9.90;98.80;;;;;;6271811;22;20326;-64
2024/03/10 09:11:08;;;;;;;30.90;20.05;;;10.00;98.70;;;;;;6272311;22;20004;-64
2024/03/10 09:13:55;;;;;;;27.60;19.55;;;10.00;98.40;;;;;;6272778;22;20008;-65
2024/03/10 09:16:43;;;;;;;25.23;18.02;;;10.10;98.30;;;;;;6270510;22;20005;-65
2024/03/10 09:19:29;;;;;;;28.30;19.27;;;10.20;98.30;;;;;;6272752;22;20015;-65
2024/03/10 09:22:15;;;;;;;25.67;17.20;;;10.20;98.10;;;;;;6272947;22;20004;-66
2024/03/10 09:25:03;;;;;;;28.80;19.17;;;10.30;98.00;;;;;;6273515;22;20436;-64
2024/03/10 09:27:51;;;;;;;26.95;17.67;;;10.30;97.90;;;;;;6271781;22;20329;-64
2024/03/10 09:30:37;;;;;;;27.73;18.45;;;10.40;97.90;;;;;;6274261;22;20004;-64
2024/03/10 09:33:23;;;;;;;26.80;17.38;;;10.50;97.90;;;;;;6272406;22;20011;-64
2024/03/10 09:36:09;;;;;;;27.75;17.75;;;10.50;97.70;;;;;;6272373;22;20018;-64
2024/03/10 09:38:55;;;;;;;26.73;18.15;;;10.60;97.70;;;;;;6273064;22;20018;-65
2024/03/10 09:41:42;;;;;;;26.98;17.85;;;10.70;97.70;;;;;;6273248;22;20444;-67
2024/03/10 09:44:30;;;;;;;27.98;18.02;;;10.70;97.70;;;;;;6250139;22;20017;-65
2024/03/10 09:47:18;;;;;;;27.73;17.85;;;10.80;97.60;;;;;;6272054;22;20122;-64
2024/03/10 09:50:06;;;;;;;29.23;17.92;;;10.90;97.40;;;;;;6272729;22;20012;-65
2024/03/10 09:52:58;;;;;;;25.90;17.85;;;11.00;97.40;;;;;;6272554;22;20008;-66
2024/03/10 09:55:47;;;;;;;25.45;17.33;;;11.10;97.30;;;;;;6271918;22;20019;-65
2024/03/10 09:58:55;;;;;;;27.23;17.60;;;11.20;97.30;;;;;;6269765;22;20003;-65
2024/03/10 10:01:46;;;;;;;25.67;17.90;;;11.30;97.40;;;;;;6271601;22;20003;-66
2024/03/10 10:04:46;;;;;;;27.40;17.85;;;11.40;97.10;;;;;;6272185;22;20017;-66
2024/03/10 10:07:34;;;;;;;28.02;18.45;;;11.40;96.80;;;;;;6273267;22;20030;-65
2024/03/10 10:10:27;;;;;;;29.00;18.13;;;11.40;96.80;;;;;;6269208;22;20101;-64
2024/03/10 10:13:24;;;;;;;24.90;15.90;;;11.50;96.80;;;;;;6272226;22;20011;-65
2024/03/10 10:16:10;;;;;;;26.42;17.63;;;11.60;96.80;;;;;;6271880;22;20016;-65
2024/03/10 10:18:56;;;;;;;24.00;16.63;;;11.70;96.70;;;;;;6271356;22;20363;-64
2024/03/10 10:21:43;;;;;;;27.65;18.30;;;11.90;96.60;;;;;;6273197;22;20012;-65
2024/03/10 10:24:28;;;;;;;28.83;19.35;;;12.00;96.50;;;;;;6270456;22;20411;-66
2024/03/10 10:27:15;;;;;;;28.63;18.45;;;12.10;96.50;;;;;;6274021;22;20455;-65
2024/03/10 10:30:01;;;;;;;26.73;19.02;;;12.20;96.20;;;;;;6299516;22;20020;-64
2024/03/10 10:32:47;;;;;;;27.67;17.58;;;12.30;96.10;;;;;;6289858;22;20003;-65
2024/03/10 10:35:42;;;;;;;28.65;19.25;;;12.30;96.00;;;;;;6271711;22;20046;-66
2024/03/10 10:38:39;;;;;;;29.98;18.63;;;12.40;95.90;;;;;;6270414;22;20447;-65
2024/03/10 10:41:26;;;;;;;27.35;17.67;;;12.50;95.90;;;;;;6269995;22;20015;-65
2024/03/10 10:44:14;;;;;;;30.48;19.80;;;12.50;95.80;;;;;;6272166;22;20087;-65
2024/03/10 10:47:03;;;;;;;28.08;18.95;;;12.60;95.60;;;;;;6271655;22;20073;-66
2024/03/10 10:49:50;;;;;;;24.65;18.05;;;12.60;95.40;;;;;;6273223;22;20031;-65
2024/03/10 10:52:35;;;;;;;25.27;18.27;;;12.60;95.30;;;;;;6271457;22;20004;-67
2024/03/10 10:55:22;;;;;;;27.67;18.60;;;12.70;95.30;;;;;;6272683;22;20070;-66
2024/03/10 10:58:11;;;;;;;23.80;15.80;;;12.80;95.20;;;;;;6271923;22;20016;-66
2024/03/10 11:01:05;;;;;;;25.73;17.42;;;12.80;95.20;;;;;;6268253;22;20519;-66
2024/03/10 11:03:54;;;;;;;26.20;16.70;;;12.90;95.10;;;;;;6274602;22;20313;-65
2024/03/10 11:06:41;;;;;;;26.70;17.52;;;12.90;94.90;;;;;;6249208;22;20042;-66
2024/03/10 11:09:30;;;;;;;26.67;15.48;;;13.00;94.90;;;;;;6272072;22;20044;-65
2024/03/10 11:12:23;;;;;;;22.33;15.02;;;13.00;94.40;;;;;;6252584;22;20008;-66
2024/03/10 11:15:10;;;;;;;25.95;17.33;;;13.00;94.50;;;;;;6271845;22;20008;-66
2024/03/10 11:17:56;;;;;;;26.23;16.52;;;13.10;94.50;;;;;;6270771;22;20344;-65
2024/03/10 11:20:44;;;;;;;22.30;15.93;;;13.10;94.50;;;;;;6271948;22;20008;-65
2024/03/10 11:23:40;;;;;;;25.65;16.70;;;13.10;94.40;;;;;;6252447;22;20016;-66
2024/03/10 11:26:26;;;;;;;30.08;18.27;;;13.10;94.30;;;;;;6272305;22;20014;-65
2024/03/10 11:29:32;;;;;;;28.15;18.63;;;13.10;94.10;;;;;;6270207;22;20026;-65
2024/03/10 11:32:31;;;;;;;24.17;17.25;;;13.10;94.10;;;;;;6251367;22;20008;-67
2024/03/10 11:35:20;;;;;;;22.60;16.15;;;13.10;94.20;;;;;;6271849;22;20046;-65
2024/03/10 11:38:09;;;;;;;24.10;16.67;;;13.10;94.00;;;;;;6270418;22;20007;-65
2024/03/10 11:40:59;;;;;;;28.45;18.65;;;13.10;94.10;;;;;;6270940;22;20007;-65
2024/03/10 11:43:47;;;;;;;27.67;16.65;;;13.20;93.90;;;;;;6267962;22;20424;-65
2024/03/10 11:46:33;;;;;;;24.70;16.20;;;13.20;93.70;;;;;;6271537;22;20008;-65
2024/03/10 11:49:20;;;;;;;26.55;17.30;;;13.20;93.70;;;;;;6271285;22;20385;-66
2024/03/10 11:52:06;;;;;;;21.35;15.43;;;13.20;93.70;;;;;;6271459;22;20451;-66
2024/03/10 11:54:59;;;;;;;24.70;15.10;;;13.20;93.70;;;;;;6273207;22;20096;-66
2024/03/10 11:57:46;;;;;;;26.63;15.35;;;13.30;93.80;;;;;;6273533;22;20410;-65
2024/03/10 12:00:35;;;;;;;22.67;14.95;;;13.30;93.40;;;;;;6270584;22;20015;-67
2024/03/10 12:03:21;;;;;;;19.75;13.18;;;13.40;93.40;;;;;;6272038;22;20328;-64
2024/03/10 12:06:09;;;;;;;19.73;14.05;;;13.30;93.40;;;;;;6273260;22;20039;-64
2024/03/10 12:08:55;;;;;;;24.30;12.88;;;13.40;93.30;;;;;;6272972;22;20015;-63
2024/03/10 12:11:42;;;;;;;22.25;14.07;;;13.40;93.20;;;;;;6272644;22;20008;-64
2024/03/10 12:14:27;;;;;;;19.35;12.95;;;13.50;93.20;;;;;;6273090;22;20077;-64
2024/03/10 12:17:13;;;;;;;19.35;13.38;;;13.60;93.20;;;;;;6270038;22;20008;-63
2024/03/10 12:20:00;;;;;;;15.20;12.43;;;13.60;93.20;;;;;;6271510;22;20454;-63
2024/03/10 12:22:49;;;;;;;19.77;13.88;;;13.70;93.10;;;;;;6271892;22;20007;-63
2024/03/10 12:25:41;;;;;;;20.30;13.85;;;13.80;93.00;;;;;;6242879;23;20020;-64
2024/03/10 12:28:27;;;;;;;18.20;13.25;;;13.80;92.80;;;;;;6218289;23;20517;-64
2024/03/10 12:31:15;;;;;;;18.80;12.35;;;13.70;92.50;;;;;;6239847;23;20087;-64
2024/03/10 12:34:02;;;;;;;22.08;15.65;;;13.70;92.60;;;;;;6218508;23;20008;-64
2024/03/10 12:36:48;;;;;;;19.67;13.38;;;13.70;92.70;;;;;;6238270;23;20004;-64
2024/03/10 12:39:34;;;;;;;23.17;13.82;;;13.70;92.60;;;;;;6237642;23;20479;-63
2024/03/10 12:42:20;;;;;;;18.10;13.70;;;13.60;92.50;;;;;;6243039;23;20471;-64
2024/03/10 12:45:08;;;;;;;20.33;14.70;;;13.60;92.50;;;;;;6242163;23;20043;-64
2024/03/10 12:47:54;;;;;;;21.30;14.90;;;13.60;92.50;;;;;;6241783;23;20082;-64
2024/03/10 12:50:40;;;;;;;19.00;13.13;;;13.60;92.40;;;;;;6242467;23;20393;-64
2024/03/10 12:53:26;;;;;;;20.63;14.10;;;13.60;92.40;;;;;;6243223;23;20009;-64
2024/03/10 12:56:12;;;;;;;18.95;13.27;;;13.60;92.40;;;;;;6239855;23;20345;-64
2024/03/10 12:58:59;;;;;;;16.42;12.30;;;13.70;92.40;;;;;;6240263;23;20094;-63
2024/03/10 13:01:45;;;;;;;18.90;12.75;;;13.60;92.30;;;;;;6240766;23;20038;-64
2024/03/10 13:04:31;;;;;;;19.00;11.68;;;13.70;92.40;;;;;;6241292;23;20010;-64
2024/03/10 13:07:18;;;;;;;19.60;12.95;;;13.60;92.20;;;;;;6220610;23;20008;-64
2024/03/10 13:10:07;;;;;;;19.00;12.55;;;13.60;92.20;;;;;;6241246;23;20019;-64
2024/03/10 13:12:53;;;;;;;17.63;12.52;;;13.60;92.30;;;;;;6241874;23;20010;-64
2024/03/10 13:15:40;;;;;;;17.80;11.75;;;13.50;92.30;;;;;;6242185;23;20012;-63
2024/03/10 13:18:26;;;;;;;20.20;12.77;;;13.50;92.30;;;;;;6241032;23;20043;-64
2024/03/10 13:21:12;;;;;;;19.00;13.63;;;13.50;92.10;;;;;;6241498;23;20016;-65
2024/03/10 13:23:58;;;;;;;19.70;12.85;;;13.50;92.20;;;;;;6253395;22;20054;-64
2024/03/10 13:26:44;;;;;;;17.95;11.90;;;13.50;92.30;;;;;;6273855;22;20012;-64
2024/03/10 13:29:30;;;;;;;17.50;12.23;;;13.40;92.20;;;;;;6272348;22;20046;-65
2024/03/10 13:32:16;;;;;;;17.70;11.85;;;13.50;92.30;;;;;;6273620;22;20415;-64
2024/03/10 13:35:03;;;;;;;18.17;11.70;;;13.50;92.30;;;;;;6271662;22;20011;-64
2024/03/10 13:37:49;;;;;;;17.58;12.52;;;13.50;92.30;;;;;;6269028;22;20039;-64
2024/03/10 13:40:35;;;;;;;19.80;13.02;;;13.50;92.40;;;;;;6272049;22;20446;-64
2024/03/10 13:43:21;;;;;;;19.13;12.13;;;13.50;92.30;;;;;;6280130;22;20103;-64
2024/03/10 13:46:07;;;;;;;19.27;12.55;;;13.60;92.30;;;;;;6285744;22;20091;-64
2024/03/10 13:48:53;;;;;;;15.85;10.63;;;13.60;92.30;;;;;;6276349;22;20022;-64
2024/03/10 13:51:45;;;;;;;18.63;12.95;;;13.60;92.30;;;;;;6273611;22;20510;-64
2024/03/10 13:54:31;;;;;;;18.83;12.38;;;13.50;92.30;;;;;;6271972;22;20474;-64
2024/03/10 13:57:20;;;;;;;17.88;11.80;;;13.60;92.30;;;;;;6273529;22;20003;-64
2024/03/10 14:00:18;;;;;;;18.95;12.52;;;13.60;92.30;;;;;;6271169;22;20015;-63
2024/03/10 14:03:08;;;;;;;15.82;10.73;;;13.60;92.30;;;;;;6270496;22;20008;-65
2024/03/10 14:05:54;;;;;;;14.50;10.85;;;13.60;92.30;;;;;;6272263;22;20091;-64
2024/03/10 14:08:40;;;;;;;20.55;12.02;;;13.70;92.30;;;;;;6270507;22;20360;-64
2024/03/10 14:11:26;;;;;;;20.83;12.55;;;13.70;92.30;;;;;;6270822;22;20436;-64
2024/03/10 14:14:13;;;;;;;18.33;12.55;;;13.70;92.30;;;;;;6272306;22;20428;-65
2024/03/10 14:17:00;;;;;;;19.45;11.75;;;13.80;92.30;;;;;;6273829;22;20003;-65
2024/03/10 14:19:47;;;;;;;14.60;10.25;;;13.80;92.30;;;;;;6269010;22;20390;-65
2024/03/10 14:22:33;;;;;;;14.70;9.80;;;13.90;92.20;;;;;;6274992;22;20004;-64
2024/03/10 14:25:19;;;;;;;14.18;9.35;;;14.00;92.20;;;;;;6273546;22;20034;-64
2024/03/10 14:28:05;;;;;;;14.43;9.68;;;14.00;92.10;;;;;;6271975;22;20023;-64
2024/03/10 14:30:52;;;;;;;13.82;9.23;;;14.10;92.10;;;;;;6268754;22;20014;-66
2024/03/10 14:33:40;;;;;;;16.92;9.02;;;14.10;92.00;;;;;;6270707;22;20007;-66
2024/03/10 14:36:26;;;;;;;12.98;9.10;;;14.10;91.90;;;;;;6272182;22;20004;-65
2024/03/10 14:39:15;;;;;;;16.98;9.10;;;14.20;91.80;;;;;;6272804;22;20012;-66